sensor_id;sensor_type;location;lat;lon;timestamp;pressure;altitude;pressure_sealevel;temperature;humidity
37142;BME280;23041;49.816;20.092;2022-12-18T00:01:16;99014.27;;;-4.60;75.71
37142;BME280;23041;49.816;20.092;2022-12-18T00:03:46;99016.98;;;-4.63;75.70
37142;BME280;23041;49.816;20.092;2022-12-18T00:06:13;99032.91;;;-4.55;75.69
37142;BME280;23041;49.816;20.092;2022-12-18T00:08:44;99035.00;;;-4.66;75.66
37142;BME280;23041;49.816;20.092;2022-12-18T00:11:15;99046.16;;;-4.61;75.66
37142;BME280;23041;49.816;20.092;2022-12-18T00:13:38;99042.37;;;-4.74;75.65
37142;BME280;23041;49.816;20.092;2022-12-18T00:16:05;99034.52;;;-4.70;75.65
37142;BME280;23041;49.816;20.092;2022-12-18T00:18:36;99048.05;;;-4.62;75.63
37142;BME280;23041;49.816;20.092;2022-12-18T00:21:03;99048.43;;;-4.68;75.63
37142;BME280;23041;49.816;20.092;2022-12-18T00:23:31;99059.87;;;-4.49;75.62
37142;BME280;23041;49.816;20.092;2022-12-18T00:26:01;99054.13;;;-4.59;75.61
37142;BME280;23041;49.816;20.092;2022-12-18T00:28:28;99053.97;;;-4.48;75.62
37142;BME280;23041;49.816;20.092;2022-12-18T00:31:05;99057.32;;;-4.57;75.63
37142;BME280;23041;49.816;20.092;2022-12-18T00:33:32;99066.82;;;-4.48;75.62
37142;BME280;23041;49.816;20.092;2022-12-18T00:36:02;99065.91;;;-4.57;75.60
37142;BME280;23041;49.816;20.092;2022-12-18T00:38:34;99077.13;;;-4.55;75.59
37142;BME280;23041;49.816;20.092;2022-12-18T00:41:00;99067.88;;;-4.63;75.58
37142;BME280;23041;49.816;20.092;2022-12-18T00:43:26;99069.31;;;-4.68;75.56
37142;BME280;23041;49.816;20.092;2022-12-18T00:45:52;99083.19;;;-4.49;75.56
37142;BME280;23041;49.816;20.092;2022-12-18T00:48:20;99080.16;;;-4.59;75.55
37142;BME280;23041;49.816;20.092;2022-12-18T00:50:49;99097.28;;;-4.44;75.57
37142;BME280;23041;49.816;20.092;2022-12-18T00:53:16;99090.81;;;-4.57;75.53
37142;BME280;23041;49.816;20.092;2022-12-18T00:55:42;99099.80;;;-4.50;75.54
37142;BME280;23041;49.816;20.092;2022-12-18T00:58:09;99098.81;;;-4.70;75.51
37142;BME280;23041;49.816;20.092;2022-12-18T01:00:35;99102.55;;;-4.69;75.50
37142;BME280;23041;49.816;20.092;2022-12-18T01:03:01;99121.78;;;-4.50;75.49
37142;BME280;23041;49.816;20.092;2022-12-18T01:05:29;99108.32;;;-4.62;75.48
37142;BME280;23041;49.816;20.092;2022-12-18T01:07:56;99110.78;;;-4.49;75.48
37142;BME280;23041;49.816;20.092;2022-12-18T01:10:22;99109.76;;;-4.67;75.46
37142;BME280;23041;49.816;20.092;2022-12-18T01:12:49;99118.05;;;-4.52;75.47
37142;BME280;23041;49.816;20.092;2022-12-18T01:15:15;99119.67;;;-4.67;75.42
37142;BME280;23041;49.816;20.092;2022-12-18T01:17:42;99122.67;;;-4.55;75.43
37142;BME280;23041;49.816;20.092;2022-12-18T01:20:09;99120.08;;;-4.76;75.40
37142;BME280;23041;49.816;20.092;2022-12-18T01:22:36;99131.76;;;-4.70;75.38
37142;BME280;23041;49.816;20.092;2022-12-18T01:25:02;99121.59;;;-4.86;75.34
37142;BME280;23041;49.816;20.092;2022-12-18T01:27:30;99133.77;;;-4.94;75.32
37142;BME280;23041;49.816;20.092;2022-12-18T01:29:56;99128.92;;;-4.92;75.30
37142;BME280;23041;49.816;20.092;2022-12-18T01:32:22;99141.69;;;-4.86;75.29
37142;BME280;23041;49.816;20.092;2022-12-18T01:34:48;99126.88;;;-4.98;75.27
37142;BME280;23041;49.816;20.092;2022-12-18T01:37:14;99139.55;;;-5.03;75.22
37142;BME280;23041;49.816;20.092;2022-12-18T01:39:40;99134.64;;;-4.99;75.24
37142;BME280;23041;49.816;20.092;2022-12-18T01:42:11;99138.34;;;-4.78;75.24
37142;BME280;23041;49.816;20.092;2022-12-18T01:44:57;99131.48;;;-4.84;75.23
37142;BME280;23041;49.816;20.092;2022-12-18T01:47:44;99128.72;;;-4.96;75.22
37142;BME280;23041;49.816;20.092;2022-12-18T01:50:16;99136.17;;;-5.11;75.19
37142;BME280;23041;49.816;20.092;2022-12-18T01:52:48;99135.52;;;-5.19;75.16
37142;BME280;23041;49.816;20.092;2022-12-18T01:55:23;99140.53;;;-5.15;75.14
37142;BME280;23041;49.816;20.092;2022-12-18T01:57:54;99150.05;;;-5.25;75.12
37142;BME280;23041;49.816;20.092;2022-12-18T02:00:22;99156.03;;;-5.31;75.10
37142;BME280;23041;49.816;20.092;2022-12-18T02:02:48;99154.37;;;-5.29;75.09
37142;BME280;23041;49.816;20.092;2022-12-18T02:05:16;99164.41;;;-5.38;75.08
37142;BME280;23041;49.816;20.092;2022-12-18T02:07:54;99161.20;;;-5.37;75.06
37142;BME280;23041;49.816;20.092;2022-12-18T02:10:45;99163.61;;;-5.38;75.05
37142;BME280;23041;49.816;20.092;2022-12-18T02:18:41;99179.27;;;-5.29;75.07
37142;BME280;23041;49.816;20.092;2022-12-18T02:26:49;99197.81;;;-5.35;75.05
37142;BME280;23041;49.816;20.092;2022-12-18T02:29:17;99202.95;;;-5.39;75.05
37142;BME280;23041;49.816;20.092;2022-12-18T02:31:50;99209.73;;;-5.25;75.05
37142;BME280;23041;49.816;20.092;2022-12-18T02:34:21;99199.66;;;-5.33;75.06
37142;BME280;23041;49.816;20.092;2022-12-18T02:36:48;99203.89;;;-5.29;75.05
37142;BME280;23041;49.816;20.092;2022-12-18T02:39:15;99199.92;;;-5.32;75.05
37142;BME280;23041;49.816;20.092;2022-12-18T02:41:43;99202.20;;;-5.23;75.08
37142;BME280;23041;49.816;20.092;2022-12-18T02:44:10;99212.88;;;-5.20;75.08
37142;BME280;23041;49.816;20.092;2022-12-18T02:46:44;99201.02;;;-5.14;75.08
37142;BME280;23041;49.816;20.092;2022-12-18T02:49:15;99208.33;;;-5.20;75.09
37142;BME280;23041;49.816;20.092;2022-12-18T02:51:59;99215.63;;;-5.25;75.09
37142;BME280;23041;49.816;20.092;2022-12-18T02:54:48;99215.09;;;-5.25;75.07
37142;BME280;23041;49.816;20.092;2022-12-18T03:00:07;99220.28;;;-5.33;75.05
37142;BME280;23041;49.816;20.092;2022-12-18T03:02:36;99226.59;;;-5.24;75.06
37142;BME280;23041;49.816;20.092;2022-12-18T03:05:21;99238.23;;;-5.15;75.06
37142;BME280;23041;49.816;20.092;2022-12-18T03:07:53;99237.70;;;-5.15;75.08
37142;BME280;23041;49.816;20.092;2022-12-18T03:10:16;99242.62;;;-5.03;75.08
37142;BME280;23041;49.816;20.092;2022-12-18T03:12:47;99245.28;;;-5.22;75.06
37142;BME280;23041;49.816;20.092;2022-12-18T03:17:46;99250.99;;;-5.07;75.05
37142;BME280;23041;49.816;20.092;2022-12-18T03:20:21;99249.34;;;-5.06;75.05
37142;BME280;23041;49.816;20.092;2022-12-18T03:22:49;99262.54;;;-5.12;75.07
37142;BME280;23041;49.816;20.092;2022-12-18T03:25:16;99262.19;;;-5.05;75.06
37142;BME280;23041;49.816;20.092;2022-12-18T03:27:46;99272.38;;;-4.86;75.09
37142;BME280;23041;49.816;20.092;2022-12-18T03:30:13;99257.20;;;-4.93;75.09
37142;BME280;23041;49.816;20.092;2022-12-18T03:35:16;99264.25;;;-5.00;75.08
37142;BME280;23041;49.816;20.092;2022-12-18T03:37:45;99266.63;;;-4.77;75.11
37142;BME280;23041;49.816;20.092;2022-12-18T03:40:11;99262.18;;;-4.84;75.09
37142;BME280;23041;49.816;20.092;2022-12-18T03:48:05;99273.64;;;-4.81;75.10
37142;BME280;23041;49.816;20.092;2022-12-18T03:50:41;99270.56;;;-4.90;75.07
37142;BME280;23041;49.816;20.092;2022-12-18T03:53:29;99277.21;;;-4.88;75.06
37142;BME280;23041;49.816;20.092;2022-12-18T03:55:59;99290.95;;;-4.73;75.07
37142;BME280;23041;49.816;20.092;2022-12-18T03:58:26;99289.41;;;-4.77;75.05
37142;BME280;23041;49.816;20.092;2022-12-18T04:00:54;99296.30;;;-4.55;75.08
37142;BME280;23041;49.816;20.092;2022-12-18T04:03:21;99285.25;;;-4.69;75.05
37142;BME280;23041;49.816;20.092;2022-12-18T04:05:48;99293.83;;;-4.51;75.06
37142;BME280;23041;49.816;20.092;2022-12-18T04:08:15;99287.75;;;-4.57;75.04
37142;BME280;23041;49.816;20.092;2022-12-18T04:10:41;99283.09;;;-4.48;75.07
37142;BME280;23041;49.816;20.092;2022-12-18T04:13:08;99296.49;;;-4.32;75.06
37142;BME280;23041;49.816;20.092;2022-12-18T04:15:34;99303.30;;;-4.40;75.06
37142;BME280;23041;49.816;20.092;2022-12-18T04:18:02;99306.05;;;-4.26;75.07
37142;BME280;23041;49.816;20.092;2022-12-18T04:20:28;99304.08;;;-4.37;75.06
37142;BME280;23041;49.816;20.092;2022-12-18T04:22:54;99315.72;;;-4.28;75.06
37142;BME280;23041;49.816;20.092;2022-12-18T04:25:20;99321.61;;;-4.44;75.02
37142;BME280;23041;49.816;20.092;2022-12-18T04:27:46;99310.50;;;-4.54;75.00
37142;BME280;23041;49.816;20.092;2022-12-18T04:30:12;99330.08;;;-4.37;75.00
37142;BME280;23041;49.816;20.092;2022-12-18T04:32:38;99322.84;;;-4.56;74.94
37142;BME280;23041;49.816;20.092;2022-12-18T04:35:04;99331.94;;;-4.35;74.96
37142;BME280;23041;49.816;20.092;2022-12-18T04:37:32;99323.48;;;-4.45;74.95
37142;BME280;23041;49.816;20.092;2022-12-18T04:39:58;99329.63;;;-4.26;74.95
37142;BME280;23041;49.816;20.092;2022-12-18T04:42:24;99337.42;;;-4.27;74.92
37142;BME280;23041;49.816;20.092;2022-12-18T04:44:50;99321.50;;;-4.37;74.92
37142;BME280;23041;49.816;20.092;2022-12-18T04:47:16;99340.53;;;-4.20;74.93
37142;BME280;23041;49.816;20.092;2022-12-18T04:49:42;99330.26;;;-4.31;74.90
37142;BME280;23041;49.816;20.092;2022-12-18T04:52:07;99345.61;;;-4.18;74.90
37142;BME280;23041;49.816;20.092;2022-12-18T04:54:33;99336.98;;;-4.34;74.88
37142;BME280;23041;49.816;20.092;2022-12-18T04:56:59;99352.86;;;-4.19;74.88
37142;BME280;23041;49.816;20.092;2022-12-18T04:59:25;99350.36;;;-4.31;74.86
37142;BME280;23041;49.816;20.092;2022-12-18T05:01:51;99362.09;;;-4.27;74.83
37142;BME280;23041;49.816;20.092;2022-12-18T05:04:17;99361.11;;;-4.34;74.83
37142;BME280;23041;49.816;20.092;2022-12-18T05:06:43;99372.73;;;-4.22;74.82
37142;BME280;23041;49.816;20.092;2022-12-18T05:09:09;99366.39;;;-4.29;74.79
37142;BME280;23041;49.816;20.092;2022-12-18T05:11:35;99375.67;;;-4.21;74.80
37142;BME280;23041;49.816;20.092;2022-12-18T05:14:01;99379.95;;;-4.20;74.78
37142;BME280;23041;49.816;20.092;2022-12-18T05:16:28;99374.20;;;-4.30;74.74
37142;BME280;23041;49.816;20.092;2022-12-18T05:18:54;99381.55;;;-4.19;74.74
37142;BME280;23041;49.816;20.092;2022-12-18T05:21:20;99371.05;;;-4.53;74.69
37142;BME280;23041;49.816;20.092;2022-12-18T05:23:45;99380.23;;;-4.40;74.69
37142;BME280;23041;49.816;20.092;2022-12-18T05:26:15;99375.08;;;-4.53;74.64
37142;BME280;23041;49.816;20.092;2022-12-18T05:28:40;99382.53;;;-4.31;74.66
37142;BME280;23041;49.816;20.092;2022-12-18T05:31:06;99374.84;;;-4.38;74.61
37142;BME280;23041;49.816;20.092;2022-12-18T05:33:33;99379.48;;;-4.25;74.64
37142;BME280;23041;49.816;20.092;2022-12-18T05:36:00;99377.23;;;-4.55;74.59
37142;BME280;23041;49.816;20.092;2022-12-18T05:38:28;99371.31;;;-4.73;74.54
37142;BME280;23041;49.816;20.092;2022-12-18T05:40:55;99377.23;;;-4.76;74.49
37142;BME280;23041;49.816;20.092;2022-12-18T05:43:22;99375.30;;;-4.92;74.43
37142;BME280;23041;49.816;20.092;2022-12-18T05:45:49;99378.84;;;-4.97;74.38
37142;BME280;23041;49.816;20.092;2022-12-18T05:48:15;99391.10;;;-4.93;74.37
37142;BME280;23041;49.816;20.092;2022-12-18T05:50:42;99391.89;;;-5.14;74.31
37142;BME280;23041;49.816;20.092;2022-12-18T05:53:13;99392.75;;;-5.18;74.29
37142;BME280;23041;49.816;20.092;2022-12-18T05:55:41;99401.95;;;-5.06;74.28
37142;BME280;23041;49.816;20.092;2022-12-18T05:58:08;99385.09;;;-5.06;74.28
37142;BME280;23041;49.816;20.092;2022-12-18T06:00:37;99398.98;;;-4.80;74.30
37142;BME280;23041;49.816;20.092;2022-12-18T06:03:07;99389.40;;;-4.84;74.30
37142;BME280;23041;49.816;20.092;2022-12-18T06:05:42;99405.55;;;-4.70;74.33
37142;BME280;23041;49.816;20.092;2022-12-18T06:08:06;99406.16;;;-4.76;74.34
37142;BME280;23041;49.816;20.092;2022-12-18T06:10:32;99401.06;;;-4.75;74.34
37142;BME280;23041;49.816;20.092;2022-12-18T06:12:59;99404.83;;;-4.55;74.37
37142;BME280;23041;49.816;20.092;2022-12-18T06:15:25;99406.27;;;-4.62;74.38
37142;BME280;23041;49.816;20.092;2022-12-18T06:17:51;99432.45;;;-4.35;74.41
37142;BME280;23041;49.816;20.092;2022-12-18T06:20:17;99414.61;;;-4.45;74.41
37142;BME280;23041;49.816;20.092;2022-12-18T06:22:43;99425.31;;;-4.42;74.41
37142;BME280;23041;49.816;20.092;2022-12-18T06:25:09;99417.78;;;-4.62;74.39
37142;BME280;23041;49.816;20.092;2022-12-18T06:27:35;99428.28;;;-4.65;74.39
37142;BME280;23041;49.816;20.092;2022-12-18T06:30:01;99421.56;;;-4.86;74.34
37142;BME280;23041;49.816;20.092;2022-12-18T06:32:27;99420.20;;;-4.63;74.33
37142;BME280;23041;49.816;20.092;2022-12-18T06:34:53;99420.91;;;-4.55;74.32
37142;BME280;23041;49.816;20.092;2022-12-18T06:37:20;99424.67;;;-4.56;74.34
37142;BME280;23041;49.816;20.092;2022-12-18T06:39:49;99443.72;;;-4.36;74.34
37142;BME280;23041;49.816;20.092;2022-12-18T06:42:15;99436.29;;;-4.41;74.35
37142;BME280;23041;49.816;20.092;2022-12-18T06:44:41;99447.86;;;-4.25;74.38
37142;BME280;23041;49.816;20.092;2022-12-18T06:47:06;99445.06;;;-4.36;74.40
37142;BME280;23041;49.816;20.092;2022-12-18T06:49:32;99450.48;;;-4.22;74.39
37142;BME280;23041;49.816;20.092;2022-12-18T06:51:59;99440.11;;;-4.29;74.38
37142;BME280;23041;49.816;20.092;2022-12-18T06:54:24;99451.58;;;-4.04;74.41
37142;BME280;23041;49.816;20.092;2022-12-18T06:56:50;99450.34;;;-4.31;74.38
37142;BME280;23041;49.816;20.092;2022-12-18T06:59:16;99464.08;;;-4.16;74.39
37142;BME280;23041;49.816;20.092;2022-12-18T07:01:42;99465.32;;;-4.08;74.37
37142;BME280;23041;49.816;20.092;2022-12-18T07:04:08;99458.36;;;-4.09;74.38
37142;BME280;23041;49.816;20.092;2022-12-18T07:06:34;99473.38;;;-3.90;74.40
37142;BME280;23041;49.816;20.092;2022-12-18T07:09:00;99469.42;;;-3.95;74.39
37142;BME280;23041;49.816;20.092;2022-12-18T07:11:26;99482.33;;;-3.78;74.40
37142;BME280;23041;49.816;20.092;2022-12-18T07:13:52;99474.20;;;-3.92;74.39
37142;BME280;23041;49.816;20.092;2022-12-18T07:16:19;99488.33;;;-3.86;74.38
37142;BME280;23041;49.816;20.092;2022-12-18T07:18:45;99475.41;;;-4.00;74.31
37142;BME280;23041;49.816;20.092;2022-12-18T07:21:13;99490.45;;;-3.83;74.31
37142;BME280;23041;49.816;20.092;2022-12-18T07:23:41;99483.59;;;-3.92;74.27
37142;BME280;23041;49.816;20.092;2022-12-18T07:26:08;99502.00;;;-3.66;74.27
37142;BME280;23041;49.816;20.092;2022-12-18T07:28:36;99500.28;;;-3.76;74.24
37142;BME280;23041;49.816;20.092;2022-12-18T07:31:04;99507.20;;;-3.56;74.24
37142;BME280;23041;49.816;20.092;2022-12-18T07:33:34;99512.44;;;-3.46;74.23
37142;BME280;23041;49.816;20.092;2022-12-18T07:36:00;99511.44;;;-3.34;74.24
37142;BME280;23041;49.816;20.092;2022-12-18T07:38:28;99521.87;;;-3.33;74.23
37142;BME280;23041;49.816;20.092;2022-12-18T07:40:54;99518.61;;;-3.30;74.21
37142;BME280;23041;49.816;20.092;2022-12-18T07:43:20;99527.91;;;-3.08;74.23
37142;BME280;23041;49.816;20.092;2022-12-18T07:45:48;99523.63;;;-3.09;74.21
37142;BME280;23041;49.816;20.092;2022-12-18T07:48:15;99529.05;;;-2.96;74.23
37142;BME280;23041;49.816;20.092;2022-12-18T07:50:41;99527.01;;;-3.17;74.19
37142;BME280;23041;49.816;20.092;2022-12-18T07:53:07;99533.14;;;-2.98;74.16
37142;BME280;23041;49.816;20.092;2022-12-18T07:55:32;99526.54;;;-3.06;74.12
37142;BME280;23041;49.816;20.092;2022-12-18T07:58:02;99536.44;;;-2.87;74.12
37142;BME280;23041;49.816;20.092;2022-12-18T08:00:29;99528.53;;;-2.98;74.05
37142;BME280;23041;49.816;20.092;2022-12-18T08:02:56;99535.06;;;-2.71;74.04
37142;BME280;23041;49.816;20.092;2022-12-18T08:05:22;99527.55;;;-2.72;74.01
37142;BME280;23041;49.816;20.092;2022-12-18T08:07:48;99537.87;;;-2.49;74.01
37142;BME280;23041;49.816;20.092;2022-12-18T08:10:15;99531.05;;;-2.58;73.99
37142;BME280;23041;49.816;20.092;2022-12-18T08:12:41;99538.03;;;-2.29;73.99
37142;BME280;23041;49.816;20.092;2022-12-18T08:15:07;99528.66;;;-2.32;73.95
37142;BME280;23041;49.816;20.092;2022-12-18T08:17:33;99536.43;;;-2.03;73.98
37142;BME280;23041;49.816;20.092;2022-12-18T08:19:59;99529.09;;;-2.14;73.96
37142;BME280;23041;49.816;20.092;2022-12-18T08:22:25;99542.54;;;-2.00;73.92
37142;BME280;23041;49.816;20.092;2022-12-18T08:24:51;99536.75;;;-1.93;73.87
37142;BME280;23041;49.816;20.092;2022-12-18T08:27:17;99550.48;;;-1.56;73.87
37142;BME280;23041;49.816;20.092;2022-12-18T08:29:43;99536.52;;;-1.58;73.84
37142;BME280;23041;49.816;20.092;2022-12-18T08:32:09;99550.13;;;-1.19;73.84
37142;BME280;23041;49.816;20.092;2022-12-18T08:34:35;99545.73;;;-1.04;73.84
37142;BME280;23041;49.816;20.092;2022-12-18T08:37:01;99547.47;;;-0.66;73.86
37142;BME280;23041;49.816;20.092;2022-12-18T08:39:27;99550.61;;;-0.72;73.80
37142;BME280;23041;49.816;20.092;2022-12-18T08:41:53;99547.97;;;-0.75;73.71
37142;BME280;23041;49.816;20.092;2022-12-18T08:44:37;99545.69;;;-0.70;73.59
37142;BME280;23041;49.816;20.092;2022-12-18T08:47:04;99548.77;;;-0.74;73.45
37142;BME280;23041;49.816;20.092;2022-12-18T08:49:31;99557.76;;;-0.37;73.36
37142;BME280;23041;49.816;20.092;2022-12-18T08:51:57;99553.56;;;-0.12;73.31
37142;BME280;23041;49.816;20.092;2022-12-18T08:54:23;99556.63;;;0.12;73.27
37142;BME280;23041;49.816;20.092;2022-12-18T08:56:49;99548.16;;;0.16;73.22
37142;BME280;23041;49.816;20.092;2022-12-18T08:59:20;99565.66;;;0.45;73.20
37142;BME280;23041;49.816;20.092;2022-12-18T09:01:43;99552.75;;;0.24;73.12
37142;BME280;23041;49.816;20.092;2022-12-18T09:04:10;99570.84;;;0.61;73.03
37142;BME280;23041;49.816;20.092;2022-12-18T09:06:36;99578.40;;;0.87;73.00
37142;BME280;23041;49.816;20.092;2022-12-18T09:09:03;99572.42;;;1.05;72.90
37142;BME280;23041;49.816;20.092;2022-12-18T09:11:30;99581.88;;;1.45;72.80
37142;BME280;23041;49.816;20.092;2022-12-18T09:13:57;99570.95;;;2.74;72.77
37142;BME280;23041;49.816;20.092;2022-12-18T09:16:24;99570.55;;;4.41;72.90
37142;BME280;23041;49.816;20.092;2022-12-18T09:18:51;99573.84;;;5.20;72.80
37142;BME280;23041;49.816;20.092;2022-12-18T09:21:19;99570.93;;;7.37;72.60
37142;BME280;23041;49.816;20.092;2022-12-18T09:23:52;99575.56;;;9.84;72.48
37142;BME280;23041;49.816;20.092;2022-12-18T09:26:20;99575.88;;;11.90;72.13
37142;BME280;23041;49.816;20.092;2022-12-18T09:28:46;99575.41;;;13.96;71.70
37142;BME280;23041;49.816;20.092;2022-12-18T09:31:12;99579.28;;;15.40;71.12
37142;BME280;23041;49.816;20.092;2022-12-18T09:33:38;99577.25;;;16.13;69.99
37142;BME280;23041;49.816;20.092;2022-12-18T09:36:05;99582.11;;;16.76;68.73
37142;BME280;23041;49.816;20.092;2022-12-18T09:38:33;99578.00;;;17.63;67.44
37142;BME280;23041;49.816;20.092;2022-12-18T09:41:04;99582.02;;;17.86;65.82
37142;BME280;23041;49.816;20.092;2022-12-18T09:43:42;99572.03;;;17.80;64.17
37142;BME280;23041;49.816;20.092;2022-12-18T09:46:17;99570.89;;;17.78;62.68
37142;BME280;23041;49.816;20.092;2022-12-18T09:48:55;99573.39;;;18.53;61.31
37142;BME280;23041;49.816;20.092;2022-12-18T09:51:27;99574.38;;;18.92;59.61
37142;BME280;23041;49.816;20.092;2022-12-18T09:54:04;99584.53;;;19.19;58.04
37142;BME280;23041;49.816;20.092;2022-12-18T09:56:23;99576.23;;;20.03;56.93
37142;BME280;23041;49.816;20.092;2022-12-18T09:58:57;99572.20;;;20.42;55.73
37142;BME280;23041;49.816;20.092;2022-12-18T10:01:27;99570.31;;;20.91;54.59
37142;BME280;23041;49.816;20.092;2022-12-18T10:03:54;99578.77;;;21.48;53.47
37142;BME280;23041;49.816;20.092;2022-12-18T10:06:35;99575.81;;;22.09;52.46
37142;BME280;23041;49.816;20.092;2022-12-18T10:11:34;99570.48;;;22.69;50.32
37142;BME280;23041;49.816;20.092;2022-12-18T10:14:09;99574.70;;;22.83;49.27
37142;BME280;23041;49.816;20.092;2022-12-18T10:16:47;99573.77;;;22.90;48.21
37142;BME280;23041;49.816;20.092;2022-12-18T10:21:58;99576.56;;;23.17;46.23
37142;BME280;23041;49.816;20.092;2022-12-18T10:26:56;99582.16;;;22.95;44.50
37142;BME280;23041;49.816;20.092;2022-12-18T10:29:25;99581.52;;;23.18;43.73
37142;BME280;23041;49.816;20.092;2022-12-18T10:31:51;99571.48;;;23.63;43.08
37142;BME280;23041;49.816;20.092;2022-12-18T10:34:17;99577.70;;;23.71;42.42
37142;BME280;23041;49.816;20.092;2022-12-18T10:36:43;99580.44;;;23.15;41.80
37142;BME280;23041;49.816;20.092;2022-12-18T10:42:09;99574.36;;;21.95;40.55
37142;BME280;23041;49.816;20.092;2022-12-18T10:44:38;99565.62;;;22.42;40.19
37142;BME280;23041;49.816;20.092;2022-12-18T10:47:05;99561.42;;;22.37;39.62
37142;BME280;23041;49.816;20.092;2022-12-18T10:49:34;99560.42;;;22.04;39.11
37142;BME280;23041;49.816;20.092;2022-12-18T10:52:11;99560.88;;;21.67;38.63
37142;BME280;23041;49.816;20.092;2022-12-18T10:54:50;99556.16;;;21.55;38.28
37142;BME280;23041;49.816;20.092;2022-12-18T10:59:57;99545.93;;;21.56;37.58
37142;BME280;23041;49.816;20.092;2022-12-18T11:02:41;99547.30;;;20.65;36.92
37142;BME280;23041;49.816;20.092;2022-12-18T11:05:01;99550.06;;;19.75;36.45
37142;BME280;23041;49.816;20.092;2022-12-18T11:08:11;99552.90;;;19.80;36.32
37142;BME280;23041;49.816;20.092;2022-12-18T11:10:15;99546.38;;;18.70;35.82
37142;BME280;23041;49.816;20.092;2022-12-18T11:12:36;99543.95;;;18.93;35.83
37142;BME280;23041;49.816;20.092;2022-12-18T11:15:02;99546.52;;;19.41;35.83
37142;BME280;23041;49.816;20.092;2022-12-18T11:17:29;99552.98;;;19.18;35.60
37142;BME280;23041;49.816;20.092;2022-12-18T11:20:02;99552.42;;;19.02;35.45
37142;BME280;23041;49.816;20.092;2022-12-18T11:22:31;99545.13;;;17.85;34.99
37142;BME280;23041;49.816;20.092;2022-12-18T11:27:31;99530.29;;;17.48;34.77
37142;BME280;23041;49.816;20.092;2022-12-18T11:30:08;99531.16;;;17.53;34.73
37142;BME280;23041;49.816;20.092;2022-12-18T11:32:42;99524.03;;;17.96;34.81
37142;BME280;23041;49.816;20.092;2022-12-18T11:37:53;99531.02;;;18.86;34.75
37142;BME280;23041;49.816;20.092;2022-12-18T11:40:20;99534.58;;;19.07;34.65
37142;BME280;23041;49.816;20.092;2022-12-18T11:42:53;99530.91;;;18.69;34.42
37142;BME280;23041;49.816;20.092;2022-12-18T11:45:25;99533.26;;;18.91;34.35
37142;BME280;23041;49.816;20.092;2022-12-18T11:53:10;99529.53;;;18.61;33.88
37142;BME280;23041;49.816;20.092;2022-12-18T11:58:26;99534.78;;;18.26;33.65
37142;BME280;23041;49.816;20.092;2022-12-18T12:01:28;99538.78;;;18.25;33.54
37142;BME280;23041;49.816;20.092;2022-12-18T12:06:49;99549.13;;;18.09;33.42
37142;BME280;23041;49.816;20.092;2022-12-18T12:23:01;99554.64;;;16.93;33.04
37142;BME280;23041;49.816;20.092;2022-12-18T12:31:05;99552.52;;;17.20;33.03
37142;BME280;23041;49.816;20.092;2022-12-18T12:33:43;99544.43;;;17.18;32.99
37142;BME280;23041;49.816;20.092;2022-12-18T12:39:03;99552.77;;;16.78;32.77
37142;BME280;23041;49.816;20.092;2022-12-18T12:41:33;99560.33;;;16.31;32.62
37142;BME280;23041;49.816;20.092;2022-12-18T12:44:24;99559.77;;;16.16;32.61
37142;BME280;23041;49.816;20.092;2022-12-18T12:46:59;99566.70;;;16.16;32.64
37142;BME280;23041;49.816;20.092;2022-12-18T12:49:29;99567.21;;;15.58;32.49
37142;BME280;23041;49.816;20.092;2022-12-18T12:52:03;99576.11;;;15.57;32.59
37142;BME280;23041;49.816;20.092;2022-12-18T12:54:32;99583.88;;;15.54;32.62
37142;BME280;23041;49.816;20.092;2022-12-18T12:57:10;99594.42;;;15.13;32.57
37142;BME280;23041;49.816;20.092;2022-12-18T13:07:40;99602.31;;;14.40;32.72
37142;BME280;23041;49.816;20.092;2022-12-18T13:12:55;99613.81;;;13.73;32.75
37142;BME280;23041;49.816;20.092;2022-12-18T13:20:39;99618.95;;;12.45;33.01
37142;BME280;23041;49.816;20.092;2022-12-18T13:25:55;99618.94;;;11.36;33.13
37142;BME280;23041;49.816;20.092;2022-12-18T13:36:50;99625.78;;;7.38;33.38
37142;BME280;23041;49.816;20.092;2022-12-18T13:41:48;99631.36;;;5.68;33.89
37142;BME280;23041;49.816;20.092;2022-12-18T13:47:00;99631.50;;;3.97;34.36
37142;BME280;23041;49.816;20.092;2022-12-18T13:49:40;99631.56;;;2.69;34.55
37142;BME280;23041;49.816;20.092;2022-12-18T13:52:21;99636.97;;;2.19;34.91
37142;BME280;23041;49.816;20.092;2022-12-18T13:54:59;99646.19;;;1.80;35.27
37142;BME280;23041;49.816;20.092;2022-12-18T13:59:55;99648.03;;;1.33;35.91
37142;BME280;23041;49.816;20.092;2022-12-18T14:02:22;99644.59;;;0.53;36.04
37142;BME280;23041;49.816;20.092;2022-12-18T14:04:50;99665.22;;;0.00;36.17
37142;BME280;23041;49.816;20.092;2022-12-18T14:07:26;99656.79;;;-0.71;36.34
37142;BME280;23041;49.816;20.092;2022-12-18T14:12:32;99657.56;;;-1.40;36.93
37142;BME280;23041;49.816;20.092;2022-12-18T14:15:26;99668.16;;;-1.57;37.35
37142;BME280;23041;49.816;20.092;2022-12-18T14:18:01;99674.68;;;-2.01;37.72
37142;BME280;23041;49.816;20.092;2022-12-18T14:20:29;99668.25;;;-2.17;38.04
37142;BME280;23041;49.816;20.092;2022-12-18T14:22:57;99690.01;;;-2.45;38.15
37142;BME280;23041;49.816;20.092;2022-12-18T14:25:24;99669.09;;;-3.18;38.25
37142;BME280;23041;49.816;20.092;2022-12-18T14:30:37;99682.55;;;-3.85;38.73
37142;BME280;23041;49.816;20.092;2022-12-18T14:33:05;99692.66;;;-4.00;39.00
37142;BME280;23041;49.816;20.092;2022-12-18T14:38:37;99686.72;;;-3.97;39.63
37142;BME280;23041;49.816;20.092;2022-12-18T14:41:05;99689.47;;;-4.05;39.89
37142;BME280;23041;49.816;20.092;2022-12-18T14:43:34;99674.91;;;-4.23;40.12
37142;BME280;23041;49.816;20.092;2022-12-18T14:46:03;99691.45;;;-4.13;40.40
37142;BME280;23041;49.816;20.092;2022-12-18T14:48:40;99682.98;;;-4.25;40.61
37142;BME280;23041;49.816;20.092;2022-12-18T14:53:48;99692.11;;;-4.55;40.92
37142;BME280;23041;49.816;20.092;2022-12-18T14:56:13;99705.30;;;-4.64;41.03
37142;BME280;23041;49.816;20.092;2022-12-18T14:58:47;99700.23;;;-5.02;41.12
37142;BME280;23041;49.816;20.092;2022-12-18T15:01:25;99694.15;;;-5.17;41.29